Tiempo atmosférico en la estación meteorológica de Tacoronte, Santa Cruz de Tenerife (310 m.)



Fecha
DESCASC
Temp. máxima en grados centígrados (hora)
DESCASC
Temp. mínima en grados centígrados (hora)
DESCASC
Temp. media en grados centígrados
DESCASC
Racha de viento máxima en m/sg (hora)
DESCASC
Velocidad máxima media en intervalos de 10 minutos(hora)
DESCASC
Precipitaciones diarias en mm
DESCASC
Precipitaciones de 00:00 a 06:00 en mm
DESCASC
Precipitaciones de 06:00 a 12:00 en mm
DESCASC
Precipitaciones de 12:00 a 18:00 en mm
DESCASC
Precipitaciones de 18:00 a 24:00 en mm
DESCASC
17-09-2020 24.1 (13:00) 20.4 (23:40) 22.3 5.56 (23:30) 2.78 (13:40) 0 0 0 0 0
15-09-2020 30 (16:10) 20.2 (05:40) 25.1 8.61 (17:00) 5.83 (16:50) 0 0 0 0 0
14-09-2020 26.2 (14:10) 18.6 (05:30) 22.4 8.06 (16:00) 5.56 (16:00) 0 0 0 0 0
13-09-2020 25.7 (16:40) 18.6 (00:00) 22.2 5 (17:20) 3.33 (05:30) 0 0 0 0 0
12-09-2020 25.9 (14:00) 19.2 (07:40) 22.6 7.22 (14:40) 3.89 (14:50) 0.2 0 0 0 0.2
11-09-2020 25.7 (16:10) 19.1 (00:00) 22.4 7.22 (17:10) 4.44 (15:30) 0 0 0 0 0
10-09-2020 25.7 (15:30) 19.4 (00:00) 22.6 8.61 (17:10) 6.11 (17:10) 0 0 0 0 0
09-09-2020 29.3 (18:30) 20.7 (23:50) 25 8.61 (14:00) 5.83 (13:40) 0 0 0 0 0
08-09-2020 28.9 (02:00) 20.6 (00:00) 24.8 5.83 (17:30) 3.61 (02:00) 0 0 0 0 0
07-09-2020 30.6 (16:20) 20 (03:50) 25.3 6.67 (13:10) 4.72 (13:20) 0 0 0 0 0
06-09-2020 25.6 (16:40) 17.1 (00:00) 21.4 6.67 (18:50) 3.89 (18:40) 0 0 0 0 0
05-09-2020 25.2 (16:10) 20.1 (00:00) 22.7 5.83 (17:30) 3.61 (19:00) 0 0 0 0 0
04-09-2020 26.3 (16:20) 16.7 (00:00) 21.5 7.78 (12:00) 5 (14:30) 0 0 0 0 0
03-09-2020 26 (13:50) 16.5 (00:00) 21.3 8.06 (16:10) 5.56 (16:10) 0 0 0 0 0
02-09-2020 25.6 (18:50) 17.3 (00:00) 21.4 8.33 (15:10) 5.56 (15:00) 0 0 0 0 0
01-09-2020 25.9 (16:50) 19.8 (00:00) 22.8 6.94 (15:00) 4.72 (13:40) 0 0 0 0 0
31-08-2020 23.9 (17:00) 18.3 (00:00) 21.1 7.78 (15:40) 4.17 (13:20) 0 0 0 0 0
30-08-2020 23.7 (17:30) 17.4 (00:00) 20.6 10.56 (15:50) 6.39 (15:50) 4.2 1.6 1.4 1.2 0
29-08-2020 24.6 (13:10) 19.6 (00:00) 22.1 8.89 (18:30) 5.56 (19:20) 4 0 0 4 0
28-08-2020 28.7 (13:40) 20.3 (00:00) 24.5 10.83 (15:30) 7.22 (16:20) 0 0 0 0 0
27-08-2020 33.3 (16:50) 22.7 (00:00) 28 5.83 (15:40) 3.89 (00:40) 0 0 0 0 0
26-08-2020 29.8 (21:30) 19.7 (00:00) 24.8 5.28 (10:00) 3.61 (23:59) 0 0 0 0 0
25-08-2020 24.6 (11:50) 18.3 (00:00) 21.4 8.06 (12:20) 5.28 (11:40) 0 0 0 0 0
24-08-2020 25.5 (15:30) 18.6 (06:40) 22.1 12.5 (12:40) 9.17 (13:10) 0 0 0 0 0
23-08-2020 27.5 (15:20) 19.4 (00:00) 23.4 10 (13:40) 7.22 (12:00) 0 0 0 0 0
22-08-2020 30.5 (10:40) 19.6 (00:00) 25.1 7.5 (10:40) 5.28 (17:10) 0 0 0 0 0
21-08-2020 26 (16:10) 17.4 (06:10) 21.7 8.06 (13:40) 5.28 (14:40) 0 0 0 0 0
20-08-2020 26.9 (17:00) 16.5 (00:00) 21.7 6.67 (14:50) 4.17 (15:10) 0 0 0 0 0

Gráficas

Temp. máximas Temp. mínimas Temp. medias Precipitaciones Rachas de viento máximas Velocidades máximas media en intervalos de 10 minutos

Datos horarios

Fecha y hora oficial Temperatura (ºC) Velocidad del viento (km/h) Dirección del viento Racha (km/h) Dirección de racha Precipitación (mm) Presión (hPa) Tendencia (hPa) Humedad (%)
2020-09-18 23:00:00 20 8 Este 10 Este 0 -- -- 85
2020-09-18 22:00:00 20 4 Sudeste 9 Sudeste 0 -- -- 84
2020-09-18 21:00:00 20.4 5 Este 13 Este 0 -- -- 82
2020-09-18 20:00:00 21.6 7 Nordeste 20 Nordeste 0 -- -- 77
2020-09-18 19:00:00 23.6 12 Nordeste 22 Nordeste 0 -- -- 67
2020-09-18 18:00:00 24.4 12 Nordeste 25 Nordeste 0 -- -- 62
2020-09-18 17:00:00 24.4 10 Norte 25 Norte 0 -- -- 62
2020-09-18 16:00:00 23.9 12 Norte 26 Norte 0 -- -- 67
2020-09-18 15:00:00 23.6 12 Norte 24 Norte 0 -- -- 70
2020-09-18 14:00:00 23.7 12 Norte 21 Norte 0 -- -- 71
2020-09-18 13:00:00 23.5 10 Norte 18 Norte 0 -- -- 71
2020-09-18 12:00:00 23.5 8 Norte 16 Norte 0 -- -- 72
2020-09-18 11:00:00 23 5 Noroeste 9 Noroeste 0 -- -- 71
2020-09-18 10:00:00 22.8 4 Oeste 7 Norte 0 -- -- 73
2020-09-18 09:00:00 20.7 3 Sur 10 Sur 0 -- -- 77
2020-09-18 08:00:00 18 7 Sur 10 Sur 0 -- -- 84
2020-09-18 07:00:00 18.3 7 Sur 11 Sudeste 0 -- -- 82
2020-09-18 06:00:00 18.2 6 Sudeste 10 Sur 0 -- -- 80
2020-09-18 05:00:00 18.6 6 Sur 12 Sudeste 0 -- -- 82
2020-09-18 04:00:00 19.3 0 Calma 10 Sur 0 -- -- 88
2020-09-18 03:00:00 19.6 5 Sudoeste 9 Oeste 0 -- -- 89
2020-09-18 02:00:00 19.9 3 Oeste 11 Oeste 0 -- -- 88
2020-09-18 01:00:00 20.2 5 Oeste 13 Sudoeste 0 -- -- 86
2020-09-18 00:00:00 20.6 4 Oeste 20 Noroeste 0 -- -- 85
2020-09-17 23:00:00 20.5 6 Oeste 17 Oeste 0 -- -- 86
2020-09-17 22:00:00 20.6 6 Oeste 13 Sudoeste 0 -- -- 85
2020-09-17 21:00:00 20.6 4 Oeste 12 Oeste 0 -- -- 84
2020-09-17 20:00:00 20.7 6 Oeste 13 Noroeste 0 -- -- 82
2020-09-17 19:00:00 21.3 6 Noroeste 14 Noroeste 0 -- -- 84
2020-09-17 18:00:00 21.9 7 Noroeste 16 Noroeste 0 -- -- 82
2020-09-17 17:00:00 22.8 8 Noroeste 16 Noroeste 0 -- -- 81
2020-09-17 16:00:00 22.3 8 Norte 14 Norte 0 -- -- 81
2020-09-17 15:00:00 22 6 Noroeste 13 Noroeste 0 -- -- 84
2020-09-17 14:00:00 22 8 Norte 18 Noroeste 0 -- -- 86
2020-09-17 13:00:00 24.1 8 Noroeste 15 Noroeste 0 -- -- 83
2020-09-17 12:00:00 23.1 5 Noroeste 9 Noroeste 0 -- -- 83
2020-09-17 11:00:00 21.8 4 Norte 8 Noroeste 0 -- -- 89
2020-09-17 10:00:00 21.1 2 Noroeste 9 Noroeste 0 -- -- 93
2020-09-17 09:00:00 20.9 4 Noroeste 15 Noroeste 0 -- -- 95
2020-09-17 08:00:00 21.1 3 Oeste 9 Oeste 0 -- -- 94
2020-09-17 07:00:00 21.1 6 Norte 12 Nordeste 0 -- -- 92
2020-09-17 06:00:00 20.9 4 Este 6 Este 0 -- -- 94
2020-09-17 05:00:00 21.1 3 Noroeste 5 Noroeste 0 -- -- 92
2020-09-17 04:00:00 21.5 5 Noroeste 8 Oeste 0 -- -- 91
2020-09-17 03:00:00 21.5 4 Este 9 Noroeste 0 -- -- 92
2020-09-17 02:00:00 21.4 3 Este 15 Norte 0 -- -- 93
2020-09-17 01:00:00 22 4 Noroeste 15 Nordeste 0 -- -- 92
2020-09-17 00:00:00 21.9 5 Nordeste 12 Nordeste 0 -- -- 93
2020-09-16 23:00:00 22.1 10 Nordeste 15 Nordeste 0 -- -- 93
2020-09-16 22:00:00 22.5 4 Nordeste 15 Oeste 0 -- -- 91
2020-09-16 21:00:00 25.6 6 Sudoeste 19 Sudoeste 0 -- -- 67
2020-09-16 20:00:00 28.4 4 Sudeste 6 Sur 0 -- -- 42
2020-09-16 19:00:00 29.9 3 Oeste 9 Sudoeste 0 -- -- 36
2020-09-16 18:00:00 30.1 4 Oeste 8 Oeste 0 -- -- 37
2020-09-16 17:00:00 29.9 4 Oeste 9 Nordeste 0 -- -- 38
2020-09-16 16:00:00 30.5 5 Norte 12 Nordeste 0 -- -- 38
2020-09-16 15:00:00 29.9 7 Norte 13 Nordeste 0 -- -- 44
2020-09-16 14:00:00 30 6 Oeste 19 Nordeste 0 -- -- 44
2020-09-16 13:00:00 30.6 10 Norte 30 Nordeste 0 -- -- 38
2020-09-16 12:00:00 29.9 11 Este 32 Sudeste 0 -- -- 37
2020-09-16 11:00:00 28.7 6 Norte 31 Sudeste 0 -- -- 35
2020-09-16 10:00:00 27.4 15 Sudeste 22 Sudeste 0 -- -- 37
2020-09-16 09:00:00 26.8 4 Sur 11 Este 0 -- -- 36
2020-09-16 08:00:00 26.6 7 Sur 19 Este 0 -- -- 36
2020-09-16 07:00:00 26 6 Sur 13 Sudeste 0 -- -- 35
2020-09-16 06:00:00 26.5 7 Este 15 Nordeste 0 -- -- 35
2020-09-16 05:00:00 25.9 4 Sur 14 Este 0 -- -- 35
2020-09-16 04:00:00 26.3 6 Sudeste 15 Este 0 -- -- 31
2020-09-16 03:00:00 26 6 Sur 18 Sudoeste 0 -- -- 27
2020-09-16 02:00:00 23.8 15 Este 23 Este 0 -- -- 37
2020-09-16 01:00:00 25.7 6 Sudeste 14 Sur 0 -- -- 26
2020-09-16 00:00:00 27 8 Sudeste 22 Este 0 -- -- 25
2020-09-15 23:00:00 25.4 3 Sudeste 8 Sudeste 0 -- -- 33
2020-09-15 22:00:00 26.7 4 Este 17 Sudoeste 0 -- -- 28
2020-09-15 21:00:00 26.3 6 Sudeste 10 Sudeste 0 -- -- 32
2020-09-15 20:00:00 22.5 3 Noroeste 15 Sur 0 -- -- 84
2020-09-15 19:00:00 22.7 8 Nordeste 24 Nordeste 0 -- -- 81
2020-09-15 18:00:00 25.9 10 Nordeste 30 Este 0 -- -- 68
2020-09-15 17:00:00 25.9 21 Nordeste 31 Nordeste 0 -- -- 68
2020-09-15 16:00:00 28.5 8 Nordeste 26 Nordeste 0 -- -- 56
2020-09-15 15:00:00 26.1 12 Nordeste 26 Nordeste 0 -- -- 66
2020-09-15 14:00:00 25.9 15 Nordeste 22 Nordeste 0 -- -- 67
2020-09-15 13:00:00 25.5 11 Nordeste 22 Nordeste 0 -- -- 69
2020-09-15 12:00:00 25.4 5 Noroeste 12 Noroeste 0 -- -- 69
2020-09-15 11:00:00 24.9 3 Norte 9 Oeste 0 -- -- 72
2020-09-15 10:00:00 22.8 8 Este 25 Este 0 -- -- 83
2020-09-15 09:00:00 22.4 7 Nordeste 23 Este 0 -- -- 76
2020-09-15 08:00:00 20.7 14 Este 25 Este 0 -- -- 94
2020-09-15 07:00:00 20.7 12 Este 18 Este 0 -- -- 92
2020-09-15 06:00:00 20.3 5 Este 9 Este 0 -- -- 92
2020-09-15 05:00:00 20.7 3 Noroeste 16 Este 0 -- -- 92
2020-09-15 04:00:00 20.9 4 Sudoeste 29 Este 0 -- -- 87
2020-09-15 03:00:00 20.7 18 Este 29 Este 0 -- -- 90
2020-09-15 02:00:00 21 7 Nordeste 11 Este 0 -- -- 89
2020-09-15 01:00:00 21 8 Sudoeste 15 Sudeste 0 -- -- 91
2020-09-15 00:00:00 21.1 8 Oeste 19 Oeste 0 -- -- 88
2020-09-14 23:00:00 21.4 9 Noroeste 21 Sudeste 0 -- -- 88
2020-09-14 22:00:00 21.2 7 Oeste 15 Oeste 0 -- -- 88
2020-09-14 21:00:00 21.3 5 Oeste 12 Oeste 0 -- -- 87
2020-09-14 20:00:00 22.1 4 Oeste 10 Oeste 0 -- -- 82
2020-09-14 19:00:00 23.6 6 Noroeste 15 Norte 0 -- -- 74
2020-09-14 18:00:00 25.4 13 Nordeste 28 Nordeste 0 -- -- 68
2020-09-14 17:00:00 24.8 20 Nordeste 29 Nordeste 0 -- -- 68
2020-09-14 16:00:00 25.3 20 Nordeste 29 Nordeste 0 -- -- 68
2020-09-14 15:00:00 25.5 16 Nordeste 28 Nordeste 0 -- -- 67
2020-09-14 14:00:00 26.1 15 Nordeste 22 Nordeste 0 -- -- 63
2020-09-14 13:00:00 25.6 10 Nordeste 23 Norte 0 -- -- 70
2020-09-14 12:00:00 25.7 9 Nordeste 21 Nordeste 0 -- -- 66
2020-09-14 11:00:00 24.3 11 Nordeste 17 Nordeste 0 -- -- 70
2020-09-14 10:00:00 24.6 2 Norte 6 Nordeste 0 -- -- 62
2020-09-14 09:00:00 21 6 Sudeste 14 Este 0 -- -- 64
2020-09-14 08:00:00 19.1 10 Sudeste 20 Sudeste 0 -- -- 67
2020-09-14 07:00:00 19.1 12 Sudeste 18 Sudeste 0 -- -- 68
2020-09-14 06:00:00 18.6 13 Sudeste 16 Sudeste 0 -- -- 72
2020-09-14 05:00:00 18.8 12 Sudeste 16 Sudeste 0 -- -- 76
2020-09-14 04:00:00 18.8 11 Sudeste 16 Sudeste 0 -- -- 80
2020-09-14 03:00:00 19.2 10 Sudeste 15 Sudeste 0 -- -- 83
2020-09-14 02:00:00 19.4 10 Sudeste 13 Sudeste 0 -- -- 83
2020-09-14 01:00:00 19.8 5 Sudeste 7 Sudeste 0 -- -- 85
2020-09-14 00:00:00 20.4 3 Sur 5 Sur 0 -- -- 86
2020-09-13 23:00:00 20.9 0 Calma 7 Nordeste 0 -- -- 89
2020-09-13 22:00:00 21.2 3 Nordeste 8 Este 0 -- -- 88
2020-09-13 21:00:00 21.4 4 Norte 8 Noroeste 0 -- -- 89
2020-09-13 20:00:00 22 5 Noroeste 14 Oeste 0 -- -- 85
2020-09-13 19:00:00 23.2 9 Noroeste 16 Noroeste 0 -- -- 81
2020-09-13 18:00:00 25.2 10 Noroeste 18 Noroeste 0 -- -- 74
2020-09-13 17:00:00 25.6 8 Noroeste 16 Oeste 0 -- -- 68
2020-09-13 16:00:00 24.5 9 Noroeste 17 Oeste 0 -- -- 73
2020-09-13 15:00:00 25 9 Noroeste 17 Noroeste 0 -- -- 73
2020-09-13 14:00:00 24.8 8 Oeste 14 Oeste 0 -- -- 73
2020-09-13 13:00:00 24.4 8 Oeste 15 Oeste 0 -- -- 75
2020-09-13 12:00:00 24.2 8 Oeste 12 Oeste 0 -- -- 72
2020-09-13 11:00:00 23.5 8 Oeste 10 Oeste 0 -- -- 68
2020-09-13 10:00:00 23.5 4 Oeste 11 Sudeste 0 -- -- 70
2020-09-13 09:00:00 20.1 5 Sur 12 Sur 0 -- -- 81
2020-09-13 08:00:00 18.7 9 Sudeste 13 Sudeste 0 -- -- 84
2020-09-13 07:00:00 19.2 6 Sudeste 9 Sudeste 0 -- -- 88
2020-09-13 06:00:00 20.2 4 Sudoeste 18 Sudoeste 0 -- -- 91
2020-09-13 05:00:00 19.5 7 Este 14 Sudeste 0 -- -- 86
2020-09-13 04:00:00 19.6 4 Sur 11 Sudoeste 0 -- -- 89
2020-09-13 03:00:00 20.1 6 Sudoeste 15 Sudoeste 0 -- -- 88
2020-09-13 02:00:00 20.3 4 Sudoeste 10 Sudoeste 0 -- -- 86
2020-09-13 01:00:00 20.3 6 Sur 10 Sur 0 -- -- 88
2020-09-13 00:00:00 20.7 3 Sur 12 Sudoeste 0.2 -- -- 90
2020-09-12 23:00:00 21.2 4 Nordeste 9 Sudoeste 0 -- -- 86
2020-09-12 22:00:00 21.8 6 Nordeste 17 Este 0 -- -- 77
2020-09-12 21:00:00 21.2 4 Norte 13 Nordeste 0 -- -- 86
2020-09-12 20:00:00 21.8 10 Nordeste 18 Nordeste 0 -- -- 81
2020-09-12 19:00:00 23 6 Noroeste 12 Noroeste 0 -- -- 77
2020-09-12 18:00:00 21.9 4 Norte 14 Noroeste 0 -- -- 82
2020-09-12 17:00:00 22.5 8 Noroeste 18 Noroeste 0 -- -- 80
2020-09-12 16:00:00 24 12 Norte 22 Norte 0 -- -- 73
2020-09-12 15:00:00 25 13 Noroeste 26 Noroeste 0 -- -- 67
2020-09-12 14:00:00 25.9 10 Nordeste 20 Nordeste 0 -- -- 64
2020-09-12 13:00:00 23.5 10 Norte 16 Noroeste 0 -- -- 72
2020-09-12 12:00:00 23.2 8 Norte 14 Norte 0 -- -- 75
2020-09-12 11:00:00 22.7 8 Norte 15 Nordeste 0 -- -- 77
2020-09-12 10:00:00 22.2 8 Nordeste 15 Nordeste 0 -- -- 76
2020-09-12 09:00:00 20.5 6 Sudeste 9 Sudeste 0 -- -- 83
2020-09-12 08:00:00 19.2 5 Sudeste 12 Sudeste 0 -- -- 82
2020-09-12 07:00:00 19.8 8 Sudeste 14 Este 0 -- -- 81
2020-09-12 06:00:00 19.9 12 Sudeste 17 Este 0 -- -- 83
2020-09-12 05:00:00 19.9 11 Este 15 Este 0 -- -- 89
2020-09-12 04:00:00 20.2 4 Nordeste 8 Nordeste 0 -- -- 88
2020-09-12 03:00:00 20.4 2 Sur 9 Nordeste 0 -- -- 85
2020-09-12 02:00:00 20.5 4 Nordeste 8 Este 0 -- -- 86
2020-09-12 01:00:00 20.7 4 Norte 12 Noroeste 0 -- -- 87
2020-09-12 00:00:00 20.7 5 Norte 13 Nordeste 0 -- -- 87
2020-09-11 23:00:00 20.7 9 Este 13 Nordeste 0 -- -- 86
2020-09-11 22:00:00 20.9 6 Nordeste 17 Nordeste 0 -- -- 83
2020-09-11 21:00:00 20.8 13 Nordeste 22 Nordeste 0 -- -- 83
2020-09-11 20:00:00 21.3 9 Nordeste 14 Norte 0 -- -- 82
2020-09-11 19:00:00 21.7 9 Norte 20 Nordeste 0 -- -- 80
2020-09-11 18:00:00 23.2 13 Nordeste 26 Este 0 -- -- 74
2020-09-11 17:00:00 24.3 15 Nordeste 25 Nordeste 0 -- -- 69
2020-09-11 16:00:00 25.3 16 Nordeste 26 Nordeste 0 -- -- 67
2020-09-11 15:00:00 24.7 13 Norte 22 Norte 0 -- -- 69
2020-09-11 14:00:00 24.1 11 Norte 19 Norte 0 -- -- 68
2020-09-11 13:00:00 25 11 Norte 18 Norte 0 -- -- 67
2020-09-11 12:00:00 23.4 10 Norte 21 Nordeste 0 -- -- 71
2020-09-11 11:00:00 23.7 10 Nordeste 17 Nordeste 0 -- -- 70
2020-09-11 10:00:00 22.3 7 Nordeste 15 Nordeste 0 -- -- 76
2020-09-11 09:00:00 21.9 8 Nordeste 12 Nordeste 0 -- -- 77
2020-09-11 08:00:00 19.2 7 Sudeste 11 Este 0 -- -- 86
2020-09-11 07:00:00 19.4 6 Este 11 Este 0 -- -- 86
2020-09-11 06:00:00 19.9 4 Este 5 Este 0 -- -- 86
2020-09-11 05:00:00 20.3 0 Calma 12 Nordeste 0 -- -- 86
2020-09-11 04:00:00 20.5 2 Nordeste 11 Nordeste 0 -- -- 86
2020-09-11 03:00:00 20.5 5 Este 15 Este 0 -- -- 86
2020-09-11 02:00:00 20 8 Este 22 Este 0 -- -- 87
2020-09-11 01:00:00 19.9 10 Este 15 Este 0 -- -- 88
2020-09-11 00:00:00 19.7 8 Este 11 Este 0 -- -- 87
2020-09-10 23:00:00 20 7 Este 17 Este 0 -- -- 87
2020-09-10 22:00:00 20.4 10 Este 16 Este 0 -- -- 86
2020-09-10 21:00:00 20.6 10 Este 15 Nordeste 0 -- -- 85
2020-09-10 20:00:00 21.6 10 Nordeste 23 Nordeste 0 -- -- 79
2020-09-10 19:00:00 23.5 15 Nordeste 25 Nordeste 0 -- -- 74
2020-09-10 18:00:00 24.3 18 Nordeste 31 Nordeste 0 -- -- 71
2020-09-10 17:00:00 24.8 20 Nordeste 31 Nordeste 0 -- -- 70
2020-09-10 16:00:00 25.6 20 Nordeste 30 Nordeste 0 -- -- 68
2020-09-10 15:00:00 25.3 19 Nordeste 30 Nordeste 0 -- -- 67
2020-09-10 14:00:00 25.3 18 Nordeste 29 Nordeste 0 -- -- 66
2020-09-10 13:00:00 24.5 18 Nordeste 30 Nordeste 0 -- -- 70
2020-09-10 12:00:00 24.4 19 Nordeste 30 Nordeste 0 -- -- 72
2020-09-10 11:00:00 23.5 18 Nordeste 28 Nordeste 0 -- -- 73
2020-09-10 10:00:00 22.7 14 Nordeste 22 Nordeste 0 -- -- 79
2020-09-10 09:00:00 20.5 10 Este 19 Este 0 -- -- 87
2020-09-10 08:00:00 19.9 10 Este 14 Este 0 -- -- 92
2020-09-10 07:00:00 19.7 10 Este 21 Nordeste 0 -- -- 90
2020-09-10 06:00:00 19.9 13 Este 20 Este 0 -- -- 91
2020-09-10 05:00:00 19.9 10 Este 21 Nordeste 0 -- -- 91
2020-09-10 04:00:00 20 13 Este 22 Este 0 -- -- 89
2020-09-10 03:00:00 20.3 12 Este 21 Este 0 -- -- 90
2020-09-10 02:00:00 19.8 10 Este 15 Este 0 -- -- 86
2020-09-10 01:00:00 19.4 5 Sur 14 Este 0 -- -- 86
2020-09-10 00:00:00 20.7 0 Calma 15 Este 0 -- -- 93
2020-09-09 23:00:00 21.2 13 Nordeste 20 Este 0 -- -- 94
2020-09-09 22:00:00 21.6 11 Este 17 Este 0 -- -- 92
2020-09-09 21:00:00 22.6 3 Oeste 9 Noroeste 0 -- -- 86
2020-09-09 20:00:00 24.6 3 Noroeste 10 Sudoeste 0 -- -- 75
2020-09-09 19:00:00 28 5 Oeste 10 Oeste 0 -- -- 64
2020-09-09 18:00:00 28.7 6 Norte 16 Nordeste 0 -- -- 62
2020-09-09 17:00:00 28 10 Norte 18 Norte 0 -- -- 60
2020-09-09 16:00:00 28.4 9 Nordeste 28 Norte 0 -- -- 60
2020-09-09 15:00:00 28 16 Nordeste 30 Nordeste 0 -- -- 64
2020-09-09 14:00:00 26.4 20 Nordeste 31 Nordeste 0 -- -- 72
2020-09-09 13:00:00 26.8 18 Nordeste 25 Nordeste 0 -- -- 67
2020-09-09 12:00:00 25.5 13 Nordeste 30 Nordeste 0 -- -- 71
2020-09-09 11:00:00 27.1 10 Nordeste 18 Nordeste 0 -- -- 66
2020-09-09 10:00:00 28.6 8 Nordeste 13 Nordeste 0 -- -- 41
2020-09-09 09:00:00 25.7 3 Sudeste 8 Sudeste 0 -- -- 36
2020-09-09 08:00:00 21.5 3 Sudeste 10 Sudeste 0 -- -- 44
2020-09-09 07:00:00 22 6 Sur 8 Sudeste 0 -- -- 39
2020-09-09 06:00:00 22.1 4 Sudeste 10 Sudeste 0 -- -- 41
2020-09-09 05:00:00 23.4 8 Sudeste 10 Sudeste 0 -- -- 43
2020-09-09 04:00:00 23 4 Sudeste 8 Sudeste 0 -- -- 45
2020-09-09 03:00:00 21.8 2 Sudoeste 7 Sudeste 0 -- -- 55
2020-09-09 02:00:00 23.2 3 Sudeste 7 Este 0 -- -- 39
2020-09-09 01:00:00 24.1 5 Sudeste 9 Sudeste 0 -- -- 35
2020-09-09 00:00:00 22.1 3 Sudeste 5 Sudeste 0 -- -- 49
2020-09-08 23:00:00 24.2 3 Este 8 Sudeste 0 -- -- 51
2020-09-08 22:00:00 24.3 3 Este 6 Sur 0 -- -- 46
2020-09-08 21:00:00 23.8 2 Sudoeste 6 Oeste 0 -- -- 84
2020-09-08 20:00:00 26.1 3 Oeste 15 Nordeste 0 -- -- 76
2020-09-08 19:00:00 25.9 11 Nordeste 17 Nordeste 0 -- -- 78
2020-09-08 18:00:00 27.5 10 Norte 21 Norte 0 -- -- 72
2020-09-08 17:00:00 28.6 8 Noroeste 17 Noroeste 0 -- -- 67
2020-09-08 16:00:00 27.7 8 Norte 18 Norte 0 -- -- 71
2020-09-08 15:00:00 27.5 12 Norte 19 Norte 0 -- -- 70
2020-09-08 14:00:00 27.3 8 Noroeste 19 Nordeste 0 -- -- 72
2020-09-08 13:00:00 26.1 6 Norte 14 Norte 0 -- -- 77
2020-09-08 12:00:00 26.4 11 Nordeste 18 Norte 0 -- -- 76
2020-09-08 11:00:00 25 5 Noroeste 13 Nordeste 0 -- -- 80
2020-09-08 10:00:00 24.5 6 Norte 13 Norte 0 -- -- 82
2020-09-08 09:00:00 22.6 2 Oeste 6 Sudoeste 0 -- -- 88
2020-09-08 08:00:00 20.7 3 Sur 8 Nordeste 0 -- -- 87
2020-09-08 07:00:00 21.7 2 Nordeste 8 Noroeste 0 -- -- 63
2020-09-08 06:00:00 23 3 Sudeste 7 Sudeste 0 -- -- 58
2020-09-08 05:00:00 23.7 3 Nordeste 10 Sudeste 0 -- -- 65
2020-09-08 04:00:00 27.1 3 Sur 16 Sudeste 0 -- -- 32
2020-09-08 03:00:00 27.8 11 Sudeste 17 Este 0 -- -- 32
2020-09-08 02:00:00 28.9 13 Sudeste 18 Sudeste 0 -- -- 33
2020-09-08 01:00:00 28 11 Sudeste 15 Sudeste 0 -- -- 39
2020-09-08 00:00:00 28 9 Sudeste 14 Sudeste 0 -- -- 38
2020-09-07 23:00:00 27.6 5 Sudeste 8 Sudeste 0 -- -- 43
2020-09-07 22:00:00 26.2 3 Sudoeste 9 Sudeste 0 -- -- 58
2020-09-07 21:00:00 24.5 5 Nordeste 6 Este 0 -- -- 79
2020-09-07 20:00:00 23.4 4 Sudoeste 7 Oeste 0 -- -- 86
2020-09-07 19:00:00 24.4 0 Calma 8 Oeste 0 -- -- 80
2020-09-07 18:00:00 25.1 5 Oeste 13 Oeste 0 -- -- 77
2020-09-07 17:00:00 26.1 10 Oeste 14 Oeste 0 -- -- 73
2020-09-07 16:00:00 28.8 4 Norte 11 Norte 0 -- -- 66
2020-09-07 15:00:00 26.6 8 Norte 20 Nordeste 0 -- -- 72
2020-09-07 14:00:00 25.9 13 Nordeste 24 Nordeste 0 -- -- 75
2020-09-07 13:00:00 25.2 12 Nordeste 18 Nordeste 0 -- -- 79
2020-09-07 12:00:00 25.9 8 Nordeste 23 Nordeste 0 -- -- 74
2020-09-07 11:00:00 24 4 Norte 12 Nordeste 0 -- -- 82
2020-09-07 10:00:00 22.5 7 Nordeste 12 Norte 0 -- -- 88
2020-09-07 09:00:00 21.2 4 Norte 8 Norte 0 -- -- 91
2020-09-07 08:00:00 20.2 3 Sudoeste 21 Nordeste 0 -- -- 93
2020-09-07 07:00:00 20.3 2 Sudoeste 8 Sudoeste 0 -- -- 93
2020-09-07 06:00:00 20.3 4 Oeste 6 Oeste 0 -- -- 93
2020-09-07 05:00:00 20.3 3 Oeste 8 Este 0 -- -- 92
2020-09-07 04:00:00 20.1 3 Norte 4 Nordeste 0 -- -- 92
2020-09-07 03:00:00 20.4 3 Sudoeste 10 Oeste 0 -- -- 91
2020-09-07 02:00:00 20.5 3 Sudoeste 8 Oeste 0 -- -- 90
2020-09-07 01:00:00 20.4 3 Nordeste 6 Nordeste 0 -- -- 89
2020-09-07 00:00:00 20.8 3 Noroeste 13 Nordeste 0 -- -- 86
2020-09-06 23:00:00 20.6 6 Nordeste 13 Este 0 -- -- 88
2020-09-06 22:00:00 20.6 5 Nordeste 14 Nordeste 0 -- -- 88
2020-09-06 21:00:00 20.6 10 Nordeste 18 Nordeste 0 -- -- 88
2020-09-06 20:00:00 21.7 12 Nordeste 20 Nordeste 0 -- -- 83
2020-09-06 19:00:00 23.6 13 Nordeste 24 Nordeste 0 -- -- 75
2020-09-06 18:00:00 25 11 Nordeste 21 Nordeste 0 -- -- 69
2020-09-06 17:00:00 25.2 10 Norte 22 Norte 0 -- -- 69
2020-09-06 16:00:00 24.7 10 Norte 23 Norte 0 -- -- 70
2020-09-06 15:00:00 24.9 11 Norte 23 Nordeste 0 -- -- 69
2020-09-06 14:00:00 23.7 11 Norte 20 Norte 0 -- -- 73
2020-09-06 13:00:00 23.7 11 Norte 19 Norte 0 -- -- 72
2020-09-06 12:00:00 23.3 8 Noroeste 14 Noroeste 0 -- -- 74
2020-09-06 11:00:00 23.1 6 Norte 14 Norte 0 -- -- 72
2020-09-06 10:00:00 22.4 4 Noroeste 9 Norte 0 -- -- 70
2020-09-06 09:00:00 20.6 4 Sur 20 Sudeste 0 -- -- 70
2020-09-06 08:00:00 17.5 12 Sudeste 17 Sudeste 0 -- -- 80
2020-09-06 07:00:00 17.4 12 Sudeste 15 Sudeste 0 -- -- 79
2020-09-06 06:00:00 17.3 10 Sudeste 14 Sudeste 0 -- -- 81
2020-09-06 05:00:00 17.7 9 Sudeste 14 Sudeste 0 -- -- 83
2020-09-06 04:00:00 17.6 10 Sudeste 13 Sudeste 0 -- -- 82
2020-09-06 03:00:00 17.7 10 Sudeste 13 Sudeste 0 -- -- 78
2020-09-06 02:00:00 18.3 9 Sudeste 12 Sudeste 0 -- -- 80
2020-09-06 01:00:00 19.4 7 Sudeste 9 Sudeste 0 -- -- 83
2020-09-06 00:00:00 20.4 5 Nordeste 9 Norte 0 -- -- 86
2020-09-05 23:00:00 20.5 6 Norte 10 Norte 0 -- -- 87
2020-09-05 22:00:00 20.8 5 Norte 10 Noroeste 0 -- -- 86
2020-09-05 21:00:00 20.8 6 Norte 14 Noroeste 0 -- -- 85
2020-09-05 20:00:00 21.8 9 Noroeste 18 Oeste 0 -- -- 83
2020-09-05 19:00:00 23.6 13 Noroeste 20 Noroeste 0 -- -- 75
2020-09-05 18:00:00 23.3 12 Noroeste 21 Noroeste 0 -- -- 75
2020-09-05 17:00:00 25 11 Noroeste 18 Oeste 0 -- -- 68
2020-09-05 16:00:00 24.8 12 Oeste 17 Noroeste 0 -- -- 67
2020-09-05 15:00:00 24.9 10 Noroeste 17 Oeste 0 -- -- 64
2020-09-05 14:00:00 24.4 8 Noroeste 15 Noroeste 0 -- -- 67
2020-09-05 13:00:00 24.7 7 Noroeste 15 Noroeste 0 -- -- 68
2020-09-05 12:00:00 24 6 Noroeste 11 Oeste 0 -- -- 70
2020-09-05 11:00:00 22.1 5 Oeste 10 Oeste 0 -- -- 79
2020-09-05 10:00:00 21.1 4 Norte 8 Norte 0 -- -- 82
2020-09-05 09:00:00 20.4 5 Norte 9 Nordeste 0 -- -- 86
2020-09-05 08:00:00 20.4 2 Norte 5 Noroeste 0 -- -- 86
2020-09-05 07:00:00 20.3 0 Calma 6 Oeste 0 -- -- 86
2020-09-05 06:00:00 20.3 3 Oeste 6 Sur 0 -- -- 88
2020-09-05 05:00:00 20.4 3 Noroeste 6 Noroeste 0 -- -- 86
2020-09-05 04:00:00 20.3 3 Nordeste 6 Nordeste 0 -- -- 86
2020-09-05 03:00:00 20.3 4 Norte 6 Norte 0 -- -- 88
2020-09-05 02:00:00 20.3 0 Calma 6 Nordeste 0 -- -- 88
2020-09-05 01:00:00 20.2 6 Nordeste 10 Nordeste 0 -- -- 89
2020-09-05 00:00:00 20.2 2 Este 9 Este 0 -- -- 89
2020-09-04 23:00:00 20 2 Noroeste 5 Este 0 -- -- 89
2020-09-04 22:00:00 20.2 5 Este 9 Este 0 -- -- 89
2020-09-04 21:00:00 20.6 6 Nordeste 19 Este 0 -- -- 86
2020-09-04 20:00:00 21.9 12 Nordeste 19 Nordeste 0 -- -- 80
2020-09-04 19:00:00 24.5 10 Nordeste 19 Nordeste 0 -- -- 70
2020-09-04 18:00:00 25.7 12 Nordeste 22 Norte 0 -- -- 65
2020-09-04 17:00:00 25.7 13 Nordeste 25 Nordeste 0 -- -- 65
2020-09-04 16:00:00 25.6 13 Nordeste 27 Nordeste 0 -- -- 65
2020-09-04 15:00:00 25.8 16 Nordeste 26 Norte 0 -- -- 64
2020-09-04 14:00:00 25.6 15 Nordeste 28 Nordeste 0 -- -- 64
2020-09-04 13:00:00 24.7 18 Nordeste 27 Nordeste 0 -- -- 65
2020-09-04 12:00:00 23.7 18 Nordeste 28 Este 0 -- -- 69
2020-09-04 11:00:00 23.1 12 Nordeste 18 Nordeste 0 -- -- 71
2020-09-04 10:00:00 22 10 Nordeste 15 Nordeste 0 -- -- 76
2020-09-04 09:00:00 19 6 Sudeste 15 Sudeste 0 -- -- 88
2020-09-04 08:00:00 17.3 10 Sudeste 14 Sudeste 0 -- -- 90
2020-09-04 07:00:00 17.7 12 Este 16 Este 0 -- -- 91
2020-09-04 06:00:00 17.4 12 Sudeste 17 Sudeste 0 -- -- 90
2020-09-04 05:00:00 17.3 13 Sudeste 17 Sudeste 0 -- -- 87
2020-09-04 04:00:00 16.9 8 Sudeste 12 Sudeste 0 -- -- 78
2020-09-04 03:00:00 17.4 8 Sudeste 11 Sudeste 0 -- -- 83
2020-09-04 02:00:00 18 8 Sudeste 11 Sudeste 0 -- -- 83
2020-09-04 01:00:00 18.1 6 Sudeste 8 Sudeste 0 -- -- 82
2020-09-04 00:00:00 18.6 5 Sudeste 7 Sudeste 0 -- -- 83
2020-09-03 23:00:00 19.2 4 Sudeste 9 Este 0 -- -- 82
2020-09-03 22:00:00 19.6 5 Este 14 Este 0 -- -- 88
2020-09-03 21:00:00 20.2 10 Este 22 Nordeste 0 -- -- 86
2020-09-03 20:00:00 21.8 15 Nordeste 22 Nordeste 0 -- -- 80
2020-09-03 19:00:00 24.3 13 Nordeste 21 Nordeste 0 -- -- 71
2020-09-03 18:00:00 24.4 14 Nordeste 26 Nordeste 0 -- -- 70
2020-09-03 17:00:00 25.3 14 Nordeste 29 Nordeste 0 -- -- 67
2020-09-03 16:00:00 25.2 18 Nordeste 27 Nordeste 0 -- -- 67
2020-09-03 15:00:00 25.3 16 Nordeste 28 Nordeste 0 -- -- 67
2020-09-03 14:00:00 26 17 Nordeste 27 Nordeste 0 -- -- 65
2020-09-03 13:00:00 25.9 15 Nordeste 24 Norte 0 -- -- 63
2020-09-03 12:00:00 24.7 15 Norte 25 Norte 0 -- -- 68
2020-09-03 11:00:00 23.7 7 Oeste 11 Oeste 0 -- -- 68
2020-09-03 10:00:00 22.9 9 Norte 15 Nordeste 0 -- -- 69
2020-09-03 09:00:00 20 7 Sudeste 15 Sudeste 0 -- -- 59
2020-09-03 08:00:00 16.5 11 Sudeste 15 Sudeste 0 -- -- 67
2020-09-03 07:00:00 16.8 7 Sudeste 15 Sudeste 0 -- -- 80
2020-09-03 06:00:00 16.8 10 Sudeste 14 Sudeste 0 -- -- 73
2020-09-03 05:00:00 17.2 9 Sudeste 11 Sudeste 0 -- -- 82
2020-09-03 04:00:00 17.2 9 Sudeste 10 Sudeste 0 -- -- 83
2020-09-03 03:00:00 17.7 8 Sudeste 10 Sudeste 0 -- -- 87
2020-09-03 02:00:00 18.2 6 Sudeste 10 Sudeste 0 -- -- 88
2020-09-03 01:00:00 18.7 8 Sudeste 10 Sudeste 0 -- -- 85
2020-09-03 00:00:00 18.8 6 Sur 9 Sudeste 0 -- -- 84
2020-09-02 23:00:00 19.3 5 Sudeste 7 Sudeste 0 -- -- 86
2020-09-02 22:00:00 20.5 4 Oeste 9 Oeste 0 -- -- 90
2020-09-02 21:00:00 21.1 4 Oeste 11 Oeste 0 -- -- 87
2020-09-02 20:00:00 23.5 7 Oeste 14 Noroeste 0 -- -- 76
2020-09-02 19:00:00 25.2 8 Noroeste 17 Noroeste 0 -- -- 69
2020-09-02 18:00:00 24.9 11 Norte 27 Nordeste 0 -- -- 73
2020-09-02 17:00:00 25.4 16 Nordeste 30 Norte 0 -- -- 72
2020-09-02 16:00:00 25.3 17 Nordeste 30 Nordeste 0 -- -- 71
2020-09-02 15:00:00 25 20 Nordeste 29 Nordeste 0 -- -- 71
2020-09-02 14:00:00 24.7 17 Nordeste 28 Nordeste 0 -- -- 72
2020-09-02 13:00:00 24.6 15 Nordeste 27 Nordeste 0 -- -- 71
2020-09-02 12:00:00 23.1 13 Norte 22 Norte 0 -- -- 79
2020-09-02 11:00:00 22.4 9 Nordeste 18 Nordeste 0 -- -- 80
2020-09-02 10:00:00 21.9 6 Noroeste 14 Nordeste 0 -- -- 78
2020-09-02 09:00:00 20.7 5 Sudeste 18 Sudeste 0 -- -- 78
2020-09-02 08:00:00 17.3 13 Sudeste 19 Sudeste 0 -- -- 84
2020-09-02 07:00:00 17.5 12 Sudeste 18 Sudeste 0 -- -- 87
2020-09-02 06:00:00 17.9 11 Sudeste 15 Sudeste 0 -- -- 84
2020-09-02 05:00:00 17.4 9 Sudeste 14 Sudeste 0 -- -- 87
2020-09-02 04:00:00 17.9 12 Sudeste 18 Sudeste 0 -- -- 86
2020-09-02 03:00:00 18.1 11 Sudeste 19 Sudeste 0 -- -- 85
2020-09-02 02:00:00 18.7 14 Sudeste 18 Sudeste 0 -- -- 86
2020-09-02 01:00:00 19.4 10 Sudeste 14 Este 0 -- -- 86
2020-09-02 00:00:00 20.2 10 Este 15 Este 0 -- -- 89
2020-09-01 23:00:00 20.2 9 Sudeste 13 Sudeste 0 -- -- 88
2020-09-01 22:00:00 20.9 5 Este 9 Nordeste 0 -- -- 90
2020-09-01 21:00:00 21.3 3 Este 14 Nordeste 0 -- -- 87
2020-09-01 20:00:00 23 12 Nordeste 18 Nordeste 0 -- -- 80
2020-09-01 19:00:00 25.5 11 Nordeste 19 Norte 0 -- -- 72
2020-09-01 18:00:00 24.8 12 Norte 22 Norte 0 -- -- 74
2020-09-01 17:00:00 25.2 13 Norte 22 Norte 0 -- -- 72
2020-09-01 16:00:00 24.3 10 Norte 24 Nordeste 0 -- -- 78
2020-09-01 15:00:00 24 15 Nordeste 25 Nordeste 0 -- -- 77
2020-09-01 14:00:00 24.6 15 Nordeste 24 Nordeste 0 -- -- 74
2020-09-01 13:00:00 24.4 13 Nordeste 22 Norte 0 -- -- 75
2020-09-01 12:00:00 22.6 15 Nordeste 22 Nordeste 0 -- -- 82
2020-09-01 11:00:00 22.4 12 Nordeste 19 Nordeste 0 -- -- 83
2020-09-01 10:00:00 20.9 9 Nordeste 18 Nordeste 0 -- -- 92
2020-09-01 09:00:00 20.3 3 Norte 9 Nordeste 0 -- -- 92
2020-09-01 08:00:00 20.3 0 Calma 6 Sudoeste 0 -- -- 87
2020-09-01 07:00:00 20 6 Sudeste 10 Sudeste 0 -- -- 91
2020-09-01 06:00:00 20 3 Noroeste 8 Nordeste 0 -- -- 93
2020-09-01 05:00:00 20.2 0 Calma 8 Noroeste 0 -- -- 93
2020-09-01 04:00:00 20.1 5 Norte 9 Norte 0 -- -- 91
2020-09-01 03:00:00 20.1 0 Calma 6 Sudoeste 0 -- -- 90
2020-09-01 02:00:00 20.1 3 Noroeste 9 Oeste 0 -- -- 90
2020-09-01 01:00:00 19.9 3 Noroeste 7 Oeste 0 -- -- 88
2020-09-01 00:00:00 19.8 4 Oeste 12 Oeste 0 -- -- 88
2020-08-31 23:00:00 19.9 4 Oeste 10 Oeste 0 -- -- 86
2020-08-31 22:00:00 19.7 4 Noroeste 9 Noroeste 0 -- -- 86
2020-08-31 21:00:00 19.9 4 Noroeste 14 Norte 0 -- -- 83
2020-08-31 20:00:00 21.6 8 Noroeste 19 Nordeste 0 -- -- 76
2020-08-31 19:00:00 23.1 10 Norte 20 Noroeste 0 -- -- 70
2020-08-31 18:00:00 23.5 12 Norte 27 Norte 0 -- -- 67
2020-08-31 17:00:00 23.9 12 Norte 24 Noroeste 0 -- -- 67
2020-08-31 16:00:00 23.2 12 Norte 28 Norte 0 -- -- 66
2020-08-31 15:00:00 22.7 14 Norte 26 Noroeste 0 -- -- 69
2020-08-31 14:00:00 22.6 14 Norte 26 Norte 0 -- -- 69
2020-08-31 13:00:00 21.7 13 Norte 22 Norte 0 -- -- 74
2020-08-31 12:00:00 21.2 10 Norte 20 Norte 0 -- -- 73
2020-08-31 11:00:00 21.1 9 Norte 17 Norte 0 -- -- 76
2020-08-31 10:00:00 20.3 9 Nordeste 15 Nordeste 0 -- -- 77
2020-08-31 09:00:00 19.2 4 Nordeste 10 Norte 0 -- -- 81
2020-08-31 08:00:00 18.5 5 Sudeste 12 Este 0 -- -- 84
2020-08-31 07:00:00 18.3 7 Este 19 Nordeste 0 -- -- 84
2020-08-31 06:00:00 18.6 6 Este 14 Este 0 -- -- 84
2020-08-31 05:00:00 18.5 9 Este 13 Este 0 -- -- 83
2020-08-31 04:00:00 18.9 8 Nordeste 15 Nordeste 0 -- -- 81
2020-08-31 03:00:00 19.3 9 Nordeste 16 Nordeste 0 -- -- 80
2020-08-31 02:00:00 19 10 Nordeste 20 Este 0 -- -- 80
2020-08-31 01:00:00 19.6 12 Nordeste 21 Nordeste 0 -- -- 78
2020-08-31 00:00:00 19 5 Este 14 Nordeste 0 -- -- 79
2020-08-30 23:00:00 19.5 10 Nordeste 16 Nordeste 0 -- -- 77
2020-08-30 22:00:00 19.5 5 Norte 21 Nordeste 0 -- -- 78
2020-08-30 21:00:00 19.6 10 Nordeste 24 Norte 0 -- -- 77
2020-08-30 20:00:00 21.4 9 Norte 23 Norte 0 -- -- 71
2020-08-30 19:00:00 23 13 Nordeste 33 Nordeste 0 -- -- 60
2020-08-30 18:00:00 23.6 17 Nordeste 31 Nordeste 0 -- -- 61
2020-08-30 17:00:00 23 21 Nordeste 38 Nordeste 0.2 -- -- 67
2020-08-30 16:00:00 23 21 Nordeste 38 Nordeste 0 -- -- 67
2020-08-30 15:00:00 22 22 Nordeste 36 Nordeste 0 -- -- 76
2020-08-30 14:00:00 20 8 Nordeste 22 Nordeste 1 -- -- 89
2020-08-30 13:00:00 21.3 9 Noroeste 29 Nordeste 0 -- -- 76
2020-08-30 12:00:00 22.1 17 Norte 31 Nordeste 0 -- -- 70
2020-08-30 11:00:00 22 14 Norte 22 Nordeste 0 -- -- 71
2020-08-30 10:00:00 18.4 3 Este 23 Nordeste 0.2 -- -- 91
2020-08-30 09:00:00 18.2 8 Nordeste 27 Nordeste 1 -- -- 94
2020-08-30 08:00:00 18.9 14 Nordeste 27 Nordeste 0 -- -- 86
2020-08-30 07:00:00 18.9 6 Noroeste 24 Noroeste 0.2 -- -- 86
2020-08-30 06:00:00 18.2 2 Oeste 20 Nordeste 0 -- -- 94
2020-08-30 05:00:00 18.1 11 Nordeste 21 Nordeste 0.2 -- -- 91
2020-08-30 04:00:00 18.9 7 Nordeste 30 Nordeste 0 -- -- 84
2020-08-30 03:00:00 19 6 Nordeste 24 Nordeste 0 -- -- 83
2020-08-30 02:00:00 19.3 11 Nordeste 23 Norte 0 -- -- 87
2020-08-30 01:00:00 19.2 5 Norte 21 Nordeste 1.4 -- -- 91
2020-08-30 00:00:00 19.8 5 Oeste 11 Oeste 0 -- -- 91
2020-08-29 23:00:00 19.8 5 Norte 17 Noroeste 0 -- -- 90
2020-08-29 22:00:00 20.2 5 Oeste 14 Noroeste 0 -- -- 86
2020-08-29 21:00:00 20.1 8 Norte 25 Nordeste 0 -- -- 86
2020-08-29 20:00:00 21.5 18 Nordeste 30 Nordeste 0 -- -- 83
2020-08-29 19:00:00 22.8 19 Nordeste 32 Norte 0 -- -- 80
2020-08-29 18:00:00 21.8 13 Nordeste 24 Nordeste 0 -- -- 92
2020-08-29 17:00:00 21.5 9 Noroeste 21 Norte 2 -- -- 94
2020-08-29 16:00:00 21.3 6 Noroeste 15 Noroeste 2 -- -- 91
2020-08-29 15:00:00 23.1 7 Noroeste 17 Norte 0 -- -- 81
2020-08-29 14:00:00 24.1 9 Norte 17 Nordeste 0 -- -- 69
2020-08-29 13:00:00 24.4 7 Noroeste 14 Noroeste 0 -- -- 68
2020-08-29 12:00:00 23.5 9 Oeste 15 Oeste 0 -- -- 72
2020-08-29 11:00:00 23 6 Norte 15 Noroeste 0 -- -- 75
2020-08-29 10:00:00 21.9 4 Norte 17 Nordeste 0 -- -- 71
2020-08-29 09:00:00 20.8 9 Norte 19 Norte 0 -- -- 80
2020-08-29 08:00:00 19.9 5 Este 13 Nordeste 0 -- -- 88
2020-08-29 07:00:00 20.2 4 Este 14 Nordeste 0 -- -- 84
2020-08-29 06:00:00 20 5 Nordeste 17 Este 0 -- -- 88
2020-08-29 05:00:00 19.7 9 Este 20 Este 0 -- -- 90
2020-08-29 04:00:00 19.9 9 Este 18 Este 0 -- -- 90
2020-08-29 03:00:00 20.2 11 Este 18 Este 0 -- -- 90
2020-08-29 02:00:00 20 10 Este 26 Este 0 -- -- 91
2020-08-29 01:00:00 20.1 17 Este 27 Este 0 -- -- 91
2020-08-29 00:00:00 20.3 20 Este 28 Este 0 -- -- 89
2020-08-28 23:00:00 20.6 18 Este 26 Este 0 -- -- 86
2020-08-28 22:00:00 20.7 20 Este 28 Este 0 -- -- 89
2020-08-28 21:00:00 21.2 18 Este 27 Este 0 -- -- 90
2020-08-28 20:00:00 22.2 19 Este 35 Este 0 -- -- 85
2020-08-28 19:00:00 23.6 23 Nordeste 32 Nordeste 0 -- -- 80
2020-08-28 18:00:00 25.4 21 Nordeste 32 Nordeste 0 -- -- 72
2020-08-28 17:00:00 26.5 18 Nordeste 33 Nordeste 0 -- -- 71
2020-08-28 16:00:00 25.9 23 Nordeste 39 Nordeste 0 -- -- 72
2020-08-28 15:00:00 26.7 19 Nordeste 30 Nordeste 0 -- -- 70
2020-08-28 14:00:00 27.2 18 Nordeste 28 Nordeste 0 -- -- 69
2020-08-28 13:00:00 27.3 17 Nordeste 26 Nordeste 0 -- -- 69
2020-08-28 12:00:00 26.6 7 Oeste 18 Nordeste 0 -- -- 74
2020-08-28 11:00:00 26.2 9 Norte 22 Nordeste 0 -- -- 75
2020-08-28 10:00:00 24.1 9 Nordeste 15 Nordeste 0 -- -- 82
2020-08-28 09:00:00 22.2 5 Sudoeste 9 Sudoeste 0 -- -- 87
2020-08-28 08:00:00 21 3 Sudeste 9 Sur 0 -- -- 85
2020-08-28 07:00:00 21.1 3 Oeste 6 Sur 0 -- -- 83
2020-08-28 06:00:00 21.5 4 Sudoeste 8 Sur 0 -- -- 83
2020-08-28 05:00:00 23 2 Nordeste 10 Sudeste 0 -- -- 55
2020-08-28 04:00:00 21.3 3 Sur 8 Sur 0 -- -- 84
2020-08-28 03:00:00 21.8 0 Calma 14 Noroeste 0 -- -- 88
2020-08-28 02:00:00 23.2 8 Sudeste 13 Sur 0 -- -- 47
2020-08-28 01:00:00 23.6 0 Calma 11 Sudeste 0 -- -- 75
2020-08-28 00:00:00 22.7 3 Este 9 Sur 0 -- -- 77
2020-08-27 23:00:00 23.4 3 Sudoeste 9 Sudeste 0 -- -- 84
2020-08-27 22:00:00 23.3 2 Este 5 Sudoeste 0 -- -- 86
2020-08-27 21:00:00 24.1 0 Calma 6 Oeste 0 -- -- 83
2020-08-27 20:00:00 26.3 3 Oeste 8 Noroeste 0 -- -- 74
2020-08-27 19:00:00 28.3 5 Norte 16 Norte 0 -- -- 67
2020-08-27 18:00:00 29 12 Norte 17 Norte 0 -- -- 64
2020-08-27 17:00:00 33.1 6 Norte 15 Noroeste 0 -- -- 48
2020-08-27 16:00:00 32.3 9 Nordeste 21 Norte 0 -- -- 47
2020-08-27 15:00:00 30.2 6 Oeste 11 Norte 0 -- -- 64
2020-08-27 14:00:00 29.3 6 Oeste 13 Oeste 0 -- -- 69
2020-08-27 13:00:00 29.1 6 Norte 12 Nordeste 0 -- -- 68
2020-08-27 12:00:00 29.6 5 Norte 11 Nordeste 0 -- -- 67
2020-08-27 11:00:00 28.7 5 Nordeste 8 Oeste 0 -- -- 72
2020-08-27 10:00:00 28.8 0 Calma 8 Norte 0 -- -- 67
2020-08-27 09:00:00 29.3 3 Nordeste 8 Este 0 -- -- 49
2020-08-27 08:00:00 28.6 2 Nordeste 14 Sudeste 0 -- -- 45
2020-08-27 07:00:00 29 3 Este 10 Sudeste 0 -- -- 45
2020-08-27 06:00:00 28.9 3 Este 12 Sudeste 0 -- -- 45
2020-08-27 05:00:00 30.7 8 Sudeste 12 Sudeste 0 -- -- 41
2020-08-27 04:00:00 31.2 10 Sudeste 13 Sur 0 -- -- 40
2020-08-27 03:00:00 30.5 9 Sudeste 11 Sudeste 0 -- -- 42
2020-08-27 02:00:00 30.4 8 Sudeste 15 Sudeste 0 -- -- 42
2020-08-27 01:00:00 29.5 13 Sudeste 17 Sudeste 0 -- -- 46
2020-08-27 00:00:00 29.5 13 Sudeste 15 Sudeste 0 -- -- 46
2020-08-26 23:00:00 29.5 11 Sudeste 14 Sudeste 0 -- -- 47
2020-08-26 22:00:00 28.7 7 Sudeste 11 Sudeste 0 -- -- 52
2020-08-26 21:00:00 26.9 4 Sur 5 Sudeste 0 -- -- 63
2020-08-26 20:00:00 24.6 2 Norte 6 Norte 0 -- -- 87
2020-08-26 19:00:00 25.5 4 Norte 9 Noroeste 0 -- -- 83
2020-08-26 18:00:00 25.7 4 Norte 13 Nordeste 0 -- -- 82
2020-08-26 17:00:00 26.1 4 Noroeste 13 Nordeste 0 -- -- 80
2020-08-26 16:00:00 26 6 Norte 13 Oeste 0 -- -- 79
2020-08-26 15:00:00 26 7 Oeste 13 Noroeste 0 -- -- 79
2020-08-26 14:00:00 24.9 6 Oeste 11 Oeste 0 -- -- 83
2020-08-26 13:00:00 23.1 8 Oeste 15 Sudoeste 0 -- -- 92
2020-08-26 12:00:00 24.1 5 Noroeste 12 Noroeste 0 -- -- 85
2020-08-26 11:00:00 23.1 9 Oeste 17 Sudeste 0 -- -- 87
2020-08-26 10:00:00 23.6 6 Nordeste 19 Este 0 -- -- 90
2020-08-26 09:00:00 20.9 4 Norte 12 Oeste 0 -- -- 96
2020-08-26 08:00:00 19.9 0 Calma 8 Oeste 0 -- -- 96
2020-08-26 07:00:00 19.9 0 Calma 11 Noroeste 0 -- -- 96
2020-08-26 06:00:00 19.9 3 Este 4 Sudeste 0 -- -- 94
2020-08-26 05:00:00 20 0 Calma 10 Sur 0 -- -- 92
2020-08-26 04:00:00 20.5 5 Sudoeste 17 Nordeste 0 -- -- 93
2020-08-26 03:00:00 20.9 9 Nordeste 18 Nordeste 0 -- -- 93
2020-08-26 02:00:00 20.9 9 Este 17 Nordeste 0 -- -- 93
2020-08-26 01:00:00 20.9 10 Nordeste 17 Nordeste 0 -- -- 93
2020-08-26 00:00:00 21.1 8 Nordeste 17 Nordeste 0 -- -- 93
2020-08-25 23:00:00 21.1 10 Este 17 Nordeste 0 -- -- 93
2020-08-25 22:00:00 21.1 9 Nordeste 19 Nordeste 0 -- -- 94
2020-08-25 21:00:00 21.1 12 Nordeste 19 Nordeste 0 -- -- 94
2020-08-25 20:00:00 21.2 14 Nordeste 20 Nordeste 0 -- -- 93
2020-08-25 19:00:00 21.4 14 Nordeste 22 Nordeste 0 -- -- 91
2020-08-25 18:00:00 21.7 12 Nordeste 27 Nordeste 0 -- -- 90
2020-08-25 17:00:00 22.3 14 Nordeste 27 Nordeste 0 -- -- 88
2020-08-25 16:00:00 22.6 17 Nordeste 28 Nordeste 0 -- -- 87
2020-08-25 15:00:00 23.2 17 Nordeste 28 Nordeste 0 -- -- 82
2020-08-25 14:00:00 23.4 15 Nordeste 26 Nordeste 0 -- -- 81
2020-08-25 13:00:00 23.3 17 Nordeste 29 Nordeste 0 -- -- 81
2020-08-25 12:00:00 24.6 16 Nordeste 27 Nordeste 0 -- -- 75
2020-08-25 11:00:00 24 13 Nordeste 22 Nordeste 0 -- -- 75
2020-08-25 10:00:00 22.9 12 Nordeste 22 Nordeste 0 -- -- 80
2020-08-25 09:00:00 20.8 12 Este 19 Este 0 -- -- 86
2020-08-25 08:00:00 18.9 6 Sur 10 Nordeste 0 -- -- 88
2020-08-25 07:00:00 18.6 4 Sudeste 20 Este 0 -- -- 86
2020-08-25 06:00:00 19.4 10 Sudeste 19 Este 0 -- -- 90
2020-08-25 05:00:00 19.6 13 Este 22 Este 0 -- -- 94
2020-08-25 04:00:00 19.8 11 Este 18 Este 0 -- -- 92
2020-08-25 03:00:00 20.2 11 Este 19 Este 0 -- -- 91
2020-08-25 02:00:00 20.3 9 Este 18 Nordeste 0 -- -- 91
2020-08-25 01:00:00 20.7 8 Este 19 Nordeste 0 -- -- 91
2020-08-25 00:00:00 20.8 10 Nordeste 21 Este 0 -- -- 90
2020-08-24 23:00:00 21 10 Nordeste 19 Nordeste 0 -- -- 88
2020-08-24 22:00:00 21 11 Este 19 Nordeste 0 -- -- 88
2020-08-24 21:00:00 21.3 8 Este 20 Este 0 -- -- 87
2020-08-24 20:00:00 22 14 Nordeste 30 Nordeste 0 -- -- 83
2020-08-24 19:00:00 23.8 17 Nordeste 30 Este 0 -- -- 75
2020-08-24 18:00:00 24.6 21 Nordeste 35 Nordeste 0 -- -- 72
2020-08-24 17:00:00 24.7 21 Nordeste 42 Nordeste 0 -- -- 72
2020-08-24 16:00:00 24.9 28 Nordeste 44 Nordeste 0 -- -- 70
2020-08-24 15:00:00 25.3 27 Nordeste 43 Nordeste 0 -- -- 69
2020-08-24 14:00:00 25 30 Nordeste 44 Nordeste 0 -- -- 73
2020-08-24 13:00:00 24.3 33 Nordeste 45 Nordeste 0 -- -- 75
2020-08-24 12:00:00 24.4 29 Nordeste 44 Nordeste 0 -- -- 73
2020-08-24 11:00:00 23.4 31 Nordeste 42 Nordeste 0 -- -- 76
2020-08-24 10:00:00 22.7 25 Nordeste 38 Nordeste 0 -- -- 77
2020-08-24 09:00:00 21.1 13 Este 21 Este 0 -- -- 83
2020-08-24 08:00:00 19.3 13 Este 23 Este 0 -- -- 89
2020-08-24 07:00:00 18.8 10 Este 16 Este 0 -- -- 85
2020-08-24 06:00:00 19 10 Este 17 Este 0 -- -- 90
2020-08-24 05:00:00 19.1 12 Este 19 Este 0 -- -- 94
2020-08-24 04:00:00 19.6 13 Este 24 Nordeste 0 -- -- 93
2020-08-24 03:00:00 19.3 11 Este 17 Este 0 -- -- 91
2020-08-24 02:00:00 19.7 10 Este 15 Sudeste 0 -- -- 89
2020-08-24 01:00:00 20 9 Este 17 Este 0 -- -- 89
2020-08-24 00:00:00 19.9 9 Este 16 Este 0 -- -- 90
2020-08-23 23:00:00 20.3 10 Este 22 Este 0 -- -- 90
2020-08-23 22:00:00 20.4 14 Este 28 Este 0 -- -- 87
2020-08-23 21:00:00 20.9 18 Nordeste 28 Este 0 -- -- 87
2020-08-23 20:00:00 22.7 20 Nordeste 28 Este 0 -- -- 79
2020-08-23 19:00:00 24.4 17 Nordeste 26 Nordeste 0 -- -- 73
2020-08-23 18:00:00 25.1 19 Nordeste 29 Este 0 -- -- 71
2020-08-23 17:00:00 25.5 21 Nordeste 31 Nordeste 0 -- -- 67
2020-08-23 16:00:00 27 20 Nordeste 30 Nordeste 0 -- -- 62
2020-08-23 15:00:00 26.4 20 Nordeste 32 Nordeste 0 -- -- 65
2020-08-23 14:00:00 25.9 22 Nordeste 36 Nordeste 0 -- -- 68
2020-08-23 13:00:00 24.5 23 Nordeste 33 Nordeste 0 -- -- 75
2020-08-23 12:00:00 23.8 26 Nordeste 35 Este 0 -- -- 79
2020-08-23 11:00:00 23.4 21 Nordeste 29 Nordeste 0 -- -- 80
2020-08-23 10:00:00 22.6 19 Nordeste 27 Nordeste 0 -- -- 84
2020-08-23 09:00:00 21.3 15 Este 24 Este 0 -- -- 89
2020-08-23 08:00:00 20.3 9 Este 22 Este 0 -- -- 87
2020-08-23 07:00:00 20.2 11 Este 20 Este 0 -- -- 90
2020-08-23 06:00:00 19.9 5 Este 25 Este 0 -- -- 81
2020-08-23 05:00:00 20.3 14 Este 23 Este 0 -- -- 87
2020-08-23 04:00:00 19.7 4 Sur 13 Este 0 -- -- 74
2020-08-23 03:00:00 19.6 4 Sudeste 5 Sur 0 -- -- 81
2020-08-23 02:00:00 19.9 0 Calma 17 Este 0 -- -- 81
2020-08-23 01:00:00 20.5 9 Este 16 Este 0 -- -- 86
2020-08-23 00:00:00 20.6 8 Este 17 Este 0 -- -- 92
2020-08-22 23:00:00 20.9 12 Este 21 Este 0 -- -- 93
2020-08-22 22:00:00 21.1 13 Este 25 Nordeste 0 -- -- 92
2020-08-22 21:00:00 21.5 15 Nordeste 26 Nordeste 0 -- -- 90
2020-08-22 20:00:00 23.1 17 Nordeste 26 Nordeste 0 -- -- 82
2020-08-22 19:00:00 24.9 17 Nordeste 26 Nordeste 0 -- -- 76
2020-08-22 18:00:00 26.7 16 Nordeste 26 Nordeste 0 -- -- 71
2020-08-22 17:00:00 26.9 15 Nordeste 22 Nordeste 0 -- -- 69
2020-08-22 16:00:00 27.5 9 Norte 21 Norte 0 -- -- 66
2020-08-22 15:00:00 27.2 8 Oeste 17 Oeste 0 -- -- 69
2020-08-22 14:00:00 25.9 10 Oeste 17 Oeste 0 -- -- 73
2020-08-22 13:00:00 25.6 8 Oeste 14 Oeste 0 -- -- 72
2020-08-22 12:00:00 24.8 8 Oeste 17 Nordeste 0 -- -- 76
2020-08-22 11:00:00 25.5 10 Noroeste 27 Este 0 -- -- 72
2020-08-22 10:00:00 22.8 3 Oeste 9 Oeste 0 -- -- 81
2020-08-22 09:00:00 22.3 6 Nordeste 11 Nordeste 0 -- -- 77
2020-08-22 08:00:00 19.9 3 Sur 6 Sudeste 0 -- -- 80
2020-08-22 07:00:00 20.4 0 Calma 10 Sudeste 0 -- -- 76
2020-08-22 06:00:00 20.1 0 Calma 10 Nordeste 0 -- -- 64
2020-08-22 05:00:00 20.2 5 Este 10 Nordeste 0 -- -- 65
2020-08-22 04:00:00 20 4 Este 7 Sudeste 0 -- -- 83
2020-08-22 03:00:00 20.3 3 Norte 9 Oeste 0 -- -- 92
2020-08-22 02:00:00 20.6 3 Noroeste 12 Este 0 -- -- 91
2020-08-22 01:00:00 20.5 9 Nordeste 22 Nordeste 0 -- -- 92
2020-08-22 00:00:00 21 9 Este 24 Este 0 -- -- 91
2020-08-21 23:00:00 20.9 10 Nordeste 16 Nordeste 0 -- -- 92
2020-08-21 22:00:00 21 8 Nordeste 17 Nordeste 0 -- -- 91
2020-08-21 21:00:00 21.1 12 Nordeste 22 Nordeste 0 -- -- 89
2020-08-21 20:00:00 22.7 10 Nordeste 19 Nordeste 0 -- -- 82
2020-08-21 19:00:00 24.8 11 Nordeste 22 Nordeste 0 -- -- 74
2020-08-21 18:00:00 24.9 16 Nordeste 26 Nordeste 0 -- -- 72
2020-08-21 17:00:00 25.4 17 Nordeste 27 Nordeste 0 -- -- 71
2020-08-21 16:00:00 25.8 12 Nordeste 24 Norte 0 -- -- 68
2020-08-21 15:00:00 25.9 15 Nordeste 29 Nordeste 0 -- -- 67
2020-08-21 14:00:00 25 18 Nordeste 29 Nordeste 0 -- -- 70
2020-08-21 13:00:00 25.3 16 Nordeste 24 Nordeste 0 -- -- 70
2020-08-21 12:00:00 25 12 Nordeste 22 Nordeste 0 -- -- 69
2020-08-21 11:00:00 23.6 6 Noroeste 12 Oeste 0 -- -- 73
2020-08-21 10:00:00 22.5 5 Oeste 10 Norte 0 -- -- 72
2020-08-21 09:00:00 21.4 3 Sudoeste 9 Sur 0 -- -- 62
2020-08-21 08:00:00 18.2 5 Sur 6 Sur 0 -- -- 38
2020-08-21 07:00:00 17.6 5 Sur 12 Sudeste 0 -- -- 37
2020-08-21 06:00:00 17.5 4 Sur 8 Sudeste 0 -- -- 54
2020-08-21 05:00:00 18.2 4 Sur 6 Sur 0 -- -- 40
2020-08-21 04:00:00 18.5 4 Sur 9 Sudeste 0 -- -- 35
2020-08-21 03:00:00 18.6 6 Sur 9 Sudeste 0 -- -- 39
2020-08-21 02:00:00 19.6 5 Sur 13 Sudeste 0 -- -- 38
2020-08-21 01:00:00 19.4 4 Sudeste 9 Sudeste 0 -- -- 58
2020-08-21 00:00:00 20.2 3 Sudeste 11 Este 0 -- -- 40
2020-08-20 23:00:00 22 9 Sudeste 14 Sudeste 0 -- -- 36
2020-08-20 22:00:00 21.4 3 Este 8 Este 0 -- -- 48
2020-08-20 21:00:00 21.5 2 Sudeste 12 Este 0 -- -- 85
2020-08-20 20:00:00 24.5 6 Nordeste 12 Nordeste 0 -- -- 75
2020-08-20 19:00:00 25.7 6 Norte 16 Noroeste 0 -- -- 70
2020-08-20 18:00:00 25.5 8 Norte 16 Nordeste 0 -- -- 70
2020-08-20 17:00:00 26.9 8 Norte 22 Nordeste 0 -- -- 62
2020-08-20 16:00:00 26 13 Norte 23 Nordeste 0 -- -- 68
2020-08-20 15:00:00 25.7 12 Nordeste 24 Nordeste 0 -- -- 67
2020-08-20 14:00:00 22.7 12 Norte 23 Norte 0 -- -- 79
2020-08-20 13:00:00 23.6 11 Norte 22 Norte 0 -- -- 72
2020-08-20 12:00:00 23 10 Norte 21 Norte 0 -- -- 76
2020-08-20 11:00:00 22.9 7 Norte 17 Nordeste 0 -- -- 76
2020-08-20 10:00:00 21.9 11 Nordeste 17 Nordeste 0 -- -- 79
2020-08-20 09:00:00 20 7 Este 13 Este 0 -- -- 88
2020-08-20 08:00:00 17.8 9 Sudeste 13 Sudeste 0 -- -- 90
2020-08-20 07:00:00 16.6 3 Sudeste 8 Este 0 -- -- 84
2020-08-20 06:00:00 17 4 Sur 8 Sur 0 -- -- 85
2020-08-20 05:00:00 17.1 5 Sur 6 Sur 0 -- -- 82
2020-08-20 04:00:00 17.8 2 Sur 7 Sur 0 -- -- 64
2020-08-20 03:00:00 18.1 5 Sur 7 Sur 0 -- -- 66
2020-08-20 02:00:00 19.4 0 Calma 14 Sudeste 0 -- -- 45
2020-08-20 01:00:00 18.5 4 Sudeste 8 Sur 0 -- -- 58
2020-08-20 00:00:00 19.4 5 Sudeste 17 Este 0 -- -- 76